sensor_id;sensor_type;location;lat;lon;timestamp;P1;durP1;ratioP1;P2;durP2;ratioP2
151;SDS011;68;48.792;9.164;2023-04-15T00:00:42;9.75;;;5.65;;
151;SDS011;68;48.792;9.164;2023-04-15T00:03:10;11.77;;;6.50;;
151;SDS011;68;48.792;9.164;2023-04-15T00:05:37;12.50;;;6.40;;
151;SDS011;68;48.792;9.164;2023-04-15T00:08:04;12.60;;;6.78;;
151;SDS011;68;48.792;9.164;2023-04-15T00:10:32;10.15;;;6.50;;
151;SDS011;68;48.792;9.164;2023-04-15T00:12:58;9.98;;;6.50;;
151;SDS011;68;48.792;9.164;2023-04-15T00:15:26;12.13;;;6.22;;
151;SDS011;68;48.792;9.164;2023-04-15T00:17:52;9.10;;;6.07;;
151;SDS011;68;48.792;9.164;2023-04-15T00:20:21;10.30;;;6.55;;
151;SDS011;68;48.792;9.164;2023-04-15T00:22:47;10.80;;;6.60;;
151;SDS011;68;48.792;9.164;2023-04-15T00:25:14;11.95;;;6.75;;
151;SDS011;68;48.792;9.164;2023-04-15T00:27:41;14.07;;;7.05;;
151;SDS011;68;48.792;9.164;2023-04-15T00:30:08;12.00;;;6.90;;
151;SDS011;68;48.792;9.164;2023-04-15T00:32:35;12.77;;;7.10;;
151;SDS011;68;48.792;9.164;2023-04-15T00:35:02;9.63;;;7.20;;
151;SDS011;68;48.792;9.164;2023-04-15T00:37:31;14.57;;;7.32;;
151;SDS011;68;48.792;9.164;2023-04-15T00:39:59;15.18;;;7.45;;
151;SDS011;68;48.792;9.164;2023-04-15T00:42:26;11.65;;;7.50;;
151;SDS011;68;48.792;9.164;2023-04-15T00:44:53;12.30;;;7.32;;
151;SDS011;68;48.792;9.164;2023-04-15T00:47:21;12.20;;;7.30;;
151;SDS011;68;48.792;9.164;2023-04-15T00:49:51;17.67;;;7.85;;
151;SDS011;68;48.792;9.164;2023-04-15T00:52:18;14.25;;;8.05;;
151;SDS011;68;48.792;9.164;2023-04-15T00:54:46;12.65;;;7.97;;
151;SDS011;68;48.792;9.164;2023-04-15T00:57:13;14.20;;;7.72;;
151;SDS011;68;48.792;9.164;2023-04-15T00:59:39;9.48;;;6.80;;
151;SDS011;68;48.792;9.164;2023-04-15T01:02:06;15.05;;;6.97;;
151;SDS011;68;48.792;9.164;2023-04-15T01:04:33;9.93;;;6.10;;
151;SDS011;68;48.792;9.164;2023-04-15T01:07:01;9.60;;;6.55;;
151;SDS011;68;48.792;9.164;2023-04-15T01:09:28;8.32;;;6.43;;
151;SDS011;68;48.792;9.164;2023-04-15T01:11:56;10.23;;;6.88;;
151;SDS011;68;48.792;9.164;2023-04-15T01:14:23;14.50;;;7.20;;
151;SDS011;68;48.792;9.164;2023-04-15T01:16:51;12.00;;;6.80;;
151;SDS011;68;48.792;9.164;2023-04-15T01:19:18;13.52;;;6.90;;
151;SDS011;68;48.792;9.164;2023-04-15T01:21:45;15.77;;;6.25;;
151;SDS011;68;48.792;9.164;2023-04-15T01:24:12;15.32;;;6.22;;
151;SDS011;68;48.792;9.164;2023-04-15T01:26:44;12.35;;;6.82;;
151;SDS011;68;48.792;9.164;2023-04-15T01:29:12;11.25;;;5.93;;
151;SDS011;68;48.792;9.164;2023-04-15T01:31:39;12.57;;;6.95;;
151;SDS011;68;48.792;9.164;2023-04-15T01:34:06;10.00;;;6.50;;
151;SDS011;68;48.792;9.164;2023-04-15T01:36:33;10.82;;;6.60;;
151;SDS011;68;48.792;9.164;2023-04-15T01:38:59;8.85;;;6.40;;
151;SDS011;68;48.792;9.164;2023-04-15T01:41:26;8.45;;;6.38;;
151;SDS011;68;48.792;9.164;2023-04-15T01:43:55;11.02;;;6.43;;
151;SDS011;68;48.792;9.164;2023-04-15T01:46:22;12.27;;;6.70;;
151;SDS011;68;48.792;9.164;2023-04-15T01:48:49;12.98;;;6.75;;
151;SDS011;68;48.792;9.164;2023-04-15T01:51:15;12.18;;;7.20;;
151;SDS011;68;48.792;9.164;2023-04-15T01:53:42;13.35;;;6.45;;
151;SDS011;68;48.792;9.164;2023-04-15T01:56:09;10.02;;;6.45;;
151;SDS011;68;48.792;9.164;2023-04-15T01:58:36;13.32;;;7.05;;
151;SDS011;68;48.792;9.164;2023-04-15T02:01:05;15.57;;;7.15;;
151;SDS011;68;48.792;9.164;2023-04-15T02:03:34;18.63;;;7.78;;
151;SDS011;68;48.792;9.164;2023-04-15T02:06:01;14.05;;;7.07;;
151;SDS011;68;48.792;9.164;2023-04-15T02:08:28;12.50;;;6.50;;
151;SDS011;68;48.792;9.164;2023-04-15T02:10:55;12.77;;;6.70;;
151;SDS011;68;48.792;9.164;2023-04-15T02:13:22;15.60;;;7.40;;
151;SDS011;68;48.792;9.164;2023-04-15T02:15:49;15.70;;;7.03;;
151;SDS011;68;48.792;9.164;2023-04-15T02:18:17;15.07;;;6.80;;
151;SDS011;68;48.792;9.164;2023-04-15T02:20:44;11.65;;;7.20;;
151;SDS011;68;48.792;9.164;2023-04-15T02:23:12;15.32;;;7.60;;
151;SDS011;68;48.792;9.164;2023-04-15T02:25:39;10.88;;;7.28;;
151;SDS011;68;48.792;9.164;2023-04-15T02:28:06;14.85;;;7.38;;
151;SDS011;68;48.792;9.164;2023-04-15T02:30:33;10.65;;;7.18;;
151;SDS011;68;48.792;9.164;2023-04-15T02:33:00;12.52;;;7.55;;
151;SDS011;68;48.792;9.164;2023-04-15T02:35:28;14.10;;;7.60;;
151;SDS011;68;48.792;9.164;2023-04-15T02:37:55;12.15;;;7.00;;
151;SDS011;68;48.792;9.164;2023-04-15T02:40:22;13.52;;;7.03;;
151;SDS011;68;48.792;9.164;2023-04-15T02:42:48;13.68;;;7.43;;
151;SDS011;68;48.792;9.164;2023-04-15T02:45:15;16.52;;;7.47;;
151;SDS011;68;48.792;9.164;2023-04-15T02:47:44;10.20;;;7.03;;
151;SDS011;68;48.792;9.164;2023-04-15T02:50:11;13.77;;;7.82;;
151;SDS011;68;48.792;9.164;2023-04-15T02:52:40;13.45;;;7.50;;
151;SDS011;68;48.792;9.164;2023-04-15T02:55:08;12.68;;;6.93;;
151;SDS011;68;48.792;9.164;2023-04-15T02:57:36;11.98;;;6.97;;
151;SDS011;68;48.792;9.164;2023-04-15T03:00:05;9.77;;;7.47;;
151;SDS011;68;48.792;9.164;2023-04-15T03:02:33;13.20;;;7.57;;
151;SDS011;68;48.792;9.164;2023-04-15T03:05:00;12.73;;;6.78;;
151;SDS011;68;48.792;9.164;2023-04-15T03:07:27;12.23;;;7.63;;
151;SDS011;68;48.792;9.164;2023-04-15T03:09:55;11.60;;;7.10;;
151;SDS011;68;48.792;9.164;2023-04-15T03:12:22;12.10;;;7.22;;
151;SDS011;68;48.792;9.164;2023-04-15T03:14:49;11.90;;;6.40;;
151;SDS011;68;48.792;9.164;2023-04-15T03:17:16;9.18;;;6.35;;
151;SDS011;68;48.792;9.164;2023-04-15T03:19:42;12.70;;;7.35;;
151;SDS011;68;48.792;9.164;2023-04-15T03:22:09;12.00;;;7.10;;
151;SDS011;68;48.792;9.164;2023-04-15T03:24:36;10.98;;;6.57;;
151;SDS011;68;48.792;9.164;2023-04-15T03:27:04;11.60;;;6.45;;
151;SDS011;68;48.792;9.164;2023-04-15T03:29:32;13.38;;;7.80;;
151;SDS011;68;48.792;9.164;2023-04-15T03:31:58;13.35;;;7.07;;
151;SDS011;68;48.792;9.164;2023-04-15T03:34:25;12.43;;;7.10;;
151;SDS011;68;48.792;9.164;2023-04-15T03:36:52;11.65;;;7.18;;
151;SDS011;68;48.792;9.164;2023-04-15T03:39:19;13.75;;;6.60;;
151;SDS011;68;48.792;9.164;2023-04-15T03:41:46;12.45;;;7.28;;
151;SDS011;68;48.792;9.164;2023-04-15T03:44:14;11.52;;;6.75;;
151;SDS011;68;48.792;9.164;2023-04-15T03:46:41;10.60;;;6.50;;
151;SDS011;68;48.792;9.164;2023-04-15T03:49:07;11.05;;;7.13;;
151;SDS011;68;48.792;9.164;2023-04-15T03:51:34;15.65;;;8.00;;
151;SDS011;68;48.792;9.164;2023-04-15T03:54:01;10.23;;;6.10;;
151;SDS011;68;48.792;9.164;2023-04-15T03:56:28;14.60;;;7.25;;
151;SDS011;68;48.792;9.164;2023-04-15T03:58:55;11.60;;;6.70;;
151;SDS011;68;48.792;9.164;2023-04-15T04:01:23;9.77;;;6.38;;
151;SDS011;68;48.792;9.164;2023-04-15T04:03:49;10.20;;;6.60;;
151;SDS011;68;48.792;9.164;2023-04-15T04:06:16;12.38;;;7.30;;
151;SDS011;68;48.792;9.164;2023-04-15T04:08:43;10.43;;;6.40;;
151;SDS011;68;48.792;9.164;2023-04-15T04:11:10;9.30;;;6.63;;
151;SDS011;68;48.792;9.164;2023-04-15T04:13:36;18.55;;;6.80;;
151;SDS011;68;48.792;9.164;2023-04-15T04:16:03;13.90;;;7.30;;
151;SDS011;68;48.792;9.164;2023-04-15T04:18:32;11.65;;;7.00;;
151;SDS011;68;48.792;9.164;2023-04-15T04:20:59;10.00;;;6.70;;
151;SDS011;68;48.792;9.164;2023-04-15T04:23:26;15.38;;;7.63;;
151;SDS011;68;48.792;9.164;2023-04-15T04:25:53;12.85;;;7.38;;
151;SDS011;68;48.792;9.164;2023-04-15T04:28:19;12.40;;;7.22;;
151;SDS011;68;48.792;9.164;2023-04-15T04:30:46;10.43;;;7.15;;
151;SDS011;68;48.792;9.164;2023-04-15T04:33:13;10.30;;;6.95;;
151;SDS011;68;48.792;9.164;2023-04-15T04:35:41;16.52;;;7.47;;
151;SDS011;68;48.792;9.164;2023-04-15T04:38:08;9.73;;;6.50;;
151;SDS011;68;48.792;9.164;2023-04-15T04:40:35;13.05;;;7.75;;
151;SDS011;68;48.792;9.164;2023-04-15T04:43:01;15.05;;;8.50;;
151;SDS011;68;48.792;9.164;2023-04-15T04:45:28;11.65;;;7.15;;
151;SDS011;68;48.792;9.164;2023-04-15T04:47:55;10.40;;;7.07;;
151;SDS011;68;48.792;9.164;2023-04-15T04:50:22;11.55;;;6.88;;
151;SDS011;68;48.792;9.164;2023-04-15T04:52:50;12.50;;;6.70;;
151;SDS011;68;48.792;9.164;2023-04-15T04:55:17;13.60;;;7.00;;
151;SDS011;68;48.792;9.164;2023-04-15T04:57:43;10.13;;;6.85;;
151;SDS011;68;48.792;9.164;2023-04-15T05:00:11;19.33;;;8.93;;
151;SDS011;68;48.792;9.164;2023-04-15T05:02:38;15.77;;;7.45;;
151;SDS011;68;48.792;9.164;2023-04-15T05:05:06;11.27;;;7.13;;
151;SDS011;68;48.792;9.164;2023-04-15T05:07:33;10.75;;;6.75;;
151;SDS011;68;48.792;9.164;2023-04-15T05:10:01;10.23;;;6.68;;
151;SDS011;68;48.792;9.164;2023-04-15T05:12:28;11.85;;;7.70;;
151;SDS011;68;48.792;9.164;2023-04-15T05:14:55;11.15;;;6.72;;
151;SDS011;68;48.792;9.164;2023-04-15T05:17:22;14.57;;;7.45;;
151;SDS011;68;48.792;9.164;2023-04-15T05:19:49;11.02;;;7.28;;
151;SDS011;68;48.792;9.164;2023-04-15T05:22:15;12.80;;;7.55;;
151;SDS011;68;48.792;9.164;2023-04-15T05:24:42;16.90;;;8.98;;
151;SDS011;68;48.792;9.164;2023-04-15T05:27:10;11.88;;;7.60;;
151;SDS011;68;48.792;9.164;2023-04-15T05:29:37;10.27;;;7.45;;
151;SDS011;68;48.792;9.164;2023-04-15T05:32:04;11.50;;;7.75;;
151;SDS011;68;48.792;9.164;2023-04-15T05:34:31;13.60;;;8.10;;
151;SDS011;68;48.792;9.164;2023-04-15T05:36:58;14.05;;;8.05;;
151;SDS011;68;48.792;9.164;2023-04-15T05:39:25;24.05;;;8.52;;
151;SDS011;68;48.792;9.164;2023-04-15T05:41:51;16.77;;;7.63;;
151;SDS011;68;48.792;9.164;2023-04-15T05:44:19;12.02;;;9.00;;
151;SDS011;68;48.792;9.164;2023-04-15T05:46:46;11.30;;;8.13;;
151;SDS011;68;48.792;9.164;2023-04-15T05:49:13;15.50;;;8.20;;
151;SDS011;68;48.792;9.164;2023-04-15T05:51:40;14.57;;;9.20;;
151;SDS011;68;48.792;9.164;2023-04-15T05:54:06;12.40;;;8.20;;
151;SDS011;68;48.792;9.164;2023-04-15T05:56:33;12.32;;;8.65;;
151;SDS011;68;48.792;9.164;2023-04-15T05:59:01;14.18;;;7.85;;
151;SDS011;68;48.792;9.164;2023-04-15T06:01:29;15.85;;;8.05;;
151;SDS011;68;48.792;9.164;2023-04-15T06:03:56;21.00;;;8.27;;
151;SDS011;68;48.792;9.164;2023-04-15T06:06:22;10.75;;;6.97;;
151;SDS011;68;48.792;9.164;2023-04-15T06:08:49;16.08;;;7.35;;
151;SDS011;68;48.792;9.164;2023-04-15T06:11:16;17.00;;;8.02;;
151;SDS011;68;48.792;9.164;2023-04-15T06:13:43;14.50;;;7.60;;
151;SDS011;68;48.792;9.164;2023-04-15T06:16:09;10.70;;;6.80;;
151;SDS011;68;48.792;9.164;2023-04-15T06:18:38;18.30;;;7.15;;
151;SDS011;68;48.792;9.164;2023-04-15T06:21:04;10.23;;;6.50;;
151;SDS011;68;48.792;9.164;2023-04-15T06:23:33;9.85;;;6.68;;
151;SDS011;68;48.792;9.164;2023-04-15T06:26:00;9.85;;;5.95;;
151;SDS011;68;48.792;9.164;2023-04-15T06:28:27;12.68;;;6.90;;
151;SDS011;68;48.792;9.164;2023-04-15T06:30:53;11.35;;;6.80;;
151;SDS011;68;48.792;9.164;2023-04-15T06:33:20;17.52;;;6.88;;
151;SDS011;68;48.792;9.164;2023-04-15T06:35:48;16.30;;;7.20;;
151;SDS011;68;48.792;9.164;2023-04-15T06:38:15;11.32;;;6.75;;
151;SDS011;68;48.792;9.164;2023-04-15T06:40:42;14.52;;;7.13;;
151;SDS011;68;48.792;9.164;2023-04-15T06:43:09;8.85;;;6.10;;
151;SDS011;68;48.792;9.164;2023-04-15T06:45:35;12.73;;;8.40;;
151;SDS011;68;48.792;9.164;2023-04-15T06:48:02;13.52;;;8.95;;
151;SDS011;68;48.792;9.164;2023-04-15T06:50:29;18.10;;;10.65;;
151;SDS011;68;48.792;9.164;2023-04-15T06:52:58;19.83;;;10.60;;
151;SDS011;68;48.792;9.164;2023-04-15T06:55:24;20.05;;;10.25;;
151;SDS011;68;48.792;9.164;2023-04-15T06:57:51;14.90;;;9.65;;
151;SDS011;68;48.792;9.164;2023-04-15T07:00:18;18.00;;;10.05;;
151;SDS011;68;48.792;9.164;2023-04-15T07:02:47;17.15;;;9.18;;
151;SDS011;68;48.792;9.164;2023-04-15T07:05:14;15.02;;;9.23;;
151;SDS011;68;48.792;9.164;2023-04-15T07:07:41;17.38;;;8.60;;
151;SDS011;68;48.792;9.164;2023-04-15T07:10:10;15.32;;;8.98;;
151;SDS011;68;48.792;9.164;2023-04-15T07:12:38;14.15;;;7.35;;
151;SDS011;68;48.792;9.164;2023-04-15T07:15:06;10.35;;;6.97;;
151;SDS011;68;48.792;9.164;2023-04-15T07:17:33;11.27;;;5.97;;
151;SDS011;68;48.792;9.164;2023-04-15T07:20:00;10.90;;;6.05;;
151;SDS011;68;48.792;9.164;2023-04-15T07:22:26;8.98;;;5.85;;
151;SDS011;68;48.792;9.164;2023-04-15T07:24:53;7.85;;;5.10;;
151;SDS011;68;48.792;9.164;2023-04-15T07:27:21;16.02;;;7.15;;
151;SDS011;68;48.792;9.164;2023-04-15T07:29:48;12.40;;;7.28;;
151;SDS011;68;48.792;9.164;2023-04-15T07:32:16;13.68;;;8.18;;
151;SDS011;68;48.792;9.164;2023-04-15T07:34:43;15.45;;;7.15;;
151;SDS011;68;48.792;9.164;2023-04-15T07:37:09;13.07;;;7.57;;
151;SDS011;68;48.792;9.164;2023-04-15T07:39:36;15.63;;;7.82;;
151;SDS011;68;48.792;9.164;2023-04-15T07:42:03;17.85;;;7.63;;
151;SDS011;68;48.792;9.164;2023-04-15T07:44:31;14.45;;;8.20;;
151;SDS011;68;48.792;9.164;2023-04-15T07:46:58;16.33;;;7.70;;
151;SDS011;68;48.792;9.164;2023-04-15T07:49:25;12.77;;;6.88;;
151;SDS011;68;48.792;9.164;2023-04-15T07:51:52;13.02;;;6.63;;
151;SDS011;68;48.792;9.164;2023-04-15T07:54:18;9.88;;;6.40;;
151;SDS011;68;48.792;9.164;2023-04-15T07:56:45;13.48;;;6.60;;
151;SDS011;68;48.792;9.164;2023-04-15T07:59:12;11.90;;;6.85;;
151;SDS011;68;48.792;9.164;2023-04-15T08:01:43;10.82;;;6.45;;
151;SDS011;68;48.792;9.164;2023-04-15T08:04:09;11.85;;;6.22;;
151;SDS011;68;48.792;9.164;2023-04-15T08:06:36;11.07;;;5.72;;
151;SDS011;68;48.792;9.164;2023-04-15T08:09:03;10.57;;;6.78;;
151;SDS011;68;48.792;9.164;2023-04-15T08:11:31;10.52;;;6.93;;
151;SDS011;68;48.792;9.164;2023-04-15T08:13:57;10.77;;;6.43;;
151;SDS011;68;48.792;9.164;2023-04-15T08:16:25;9.05;;;6.93;;
151;SDS011;68;48.792;9.164;2023-04-15T08:18:54;10.48;;;5.70;;
151;SDS011;68;48.792;9.164;2023-04-15T08:21:21;11.05;;;6.25;;
151;SDS011;68;48.792;9.164;2023-04-15T08:23:50;16.20;;;5.78;;
151;SDS011;68;48.792;9.164;2023-04-15T08:26:17;7.40;;;4.90;;
151;SDS011;68;48.792;9.164;2023-04-15T08:28:45;8.77;;;5.07;;
151;SDS011;68;48.792;9.164;2023-04-15T08:31:12;9.55;;;5.30;;
151;SDS011;68;48.792;9.164;2023-04-15T08:33:40;12.68;;;5.47;;
151;SDS011;68;48.792;9.164;2023-04-15T08:36:08;13.45;;;5.13;;
151;SDS011;68;48.792;9.164;2023-04-15T08:38:35;7.00;;;4.65;;
151;SDS011;68;48.792;9.164;2023-04-15T08:41:03;6.63;;;4.90;;
151;SDS011;68;48.792;9.164;2023-04-15T08:43:38;9.25;;;5.20;;
151;SDS011;68;48.792;9.164;2023-04-15T08:46:14;10.70;;;5.90;;
151;SDS011;68;48.792;9.164;2023-04-15T08:48:41;14.30;;;5.35;;
151;SDS011;68;48.792;9.164;2023-04-15T08:51:11;8.65;;;5.07;;
151;SDS011;68;48.792;9.164;2023-04-15T08:53:40;10.43;;;4.80;;
151;SDS011;68;48.792;9.164;2023-04-15T08:56:08;8.48;;;4.57;;
151;SDS011;68;48.792;9.164;2023-04-15T08:58:37;8.10;;;4.20;;
151;SDS011;68;48.792;9.164;2023-04-15T09:01:04;7.30;;;4.28;;
151;SDS011;68;48.792;9.164;2023-04-15T09:03:31;11.75;;;4.78;;
151;SDS011;68;48.792;9.164;2023-04-15T09:05:58;7.15;;;4.05;;
151;SDS011;68;48.792;9.164;2023-04-15T09:08:27;8.70;;;4.25;;
151;SDS011;68;48.792;9.164;2023-04-15T09:10:53;6.90;;;4.10;;
151;SDS011;68;48.792;9.164;2023-04-15T09:13:20;9.85;;;4.80;;
151;SDS011;68;48.792;9.164;2023-04-15T09:15:47;10.20;;;5.50;;
151;SDS011;68;48.792;9.164;2023-04-15T09:18:21;10.80;;;4.97;;
151;SDS011;68;48.792;9.164;2023-04-15T09:20:53;8.60;;;5.10;;
151;SDS011;68;48.792;9.164;2023-04-15T09:23:20;13.95;;;5.82;;
151;SDS011;68;48.792;9.164;2023-04-15T09:25:48;10.40;;;4.93;;
151;SDS011;68;48.792;9.164;2023-04-15T09:28:22;8.55;;;4.45;;
151;SDS011;68;48.792;9.164;2023-04-15T09:30:50;8.18;;;4.75;;
151;SDS011;68;48.792;9.164;2023-04-15T09:33:17;6.68;;;4.20;;
151;SDS011;68;48.792;9.164;2023-04-15T09:35:54;9.32;;;4.55;;
151;SDS011;68;48.792;9.164;2023-04-15T09:38:22;8.20;;;5.80;;
151;SDS011;68;48.792;9.164;2023-04-15T09:40:51;7.50;;;4.60;;
151;SDS011;68;48.792;9.164;2023-04-15T09:43:18;12.10;;;5.20;;
151;SDS011;68;48.792;9.164;2023-04-15T09:45:47;5.90;;;4.00;;
151;SDS011;68;48.792;9.164;2023-04-15T09:48:16;5.35;;;4.32;;
151;SDS011;68;48.792;9.164;2023-04-15T09:50:44;7.97;;;5.00;;
151;SDS011;68;48.792;9.164;2023-04-15T09:53:15;7.57;;;4.70;;
151;SDS011;68;48.792;9.164;2023-04-15T09:55:44;6.85;;;4.50;;
151;SDS011;68;48.792;9.164;2023-04-15T09:58:17;8.52;;;4.18;;
151;SDS011;68;48.792;9.164;2023-04-15T10:00:46;16.50;;;4.60;;
151;SDS011;68;48.792;9.164;2023-04-15T10:03:14;8.55;;;4.68;;
151;SDS011;68;48.792;9.164;2023-04-15T10:05:44;7.50;;;4.45;;
151;SDS011;68;48.792;9.164;2023-04-15T10:08:12;7.18;;;4.50;;
151;SDS011;68;48.792;9.164;2023-04-15T10:10:40;6.00;;;4.28;;
151;SDS011;68;48.792;9.164;2023-04-15T10:13:07;7.55;;;4.90;;
151;SDS011;68;48.792;9.164;2023-04-15T10:15:36;9.85;;;5.85;;
151;SDS011;68;48.792;9.164;2023-04-15T10:18:03;9.68;;;4.85;;
151;SDS011;68;48.792;9.164;2023-04-15T10:20:32;5.63;;;4.60;;
151;SDS011;68;48.792;9.164;2023-04-15T10:23:00;9.10;;;5.03;;
151;SDS011;68;48.792;9.164;2023-04-15T10:25:27;6.68;;;5.15;;
151;SDS011;68;48.792;9.164;2023-04-15T10:27:55;6.57;;;4.90;;
151;SDS011;68;48.792;9.164;2023-04-15T10:30:23;9.43;;;4.70;;
151;SDS011;68;48.792;9.164;2023-04-15T10:32:51;7.68;;;4.13;;
151;SDS011;68;48.792;9.164;2023-04-15T10:35:19;10.30;;;5.50;;
151;SDS011;68;48.792;9.164;2023-04-15T10:37:47;8.63;;;4.93;;
151;SDS011;68;48.792;9.164;2023-04-15T10:40:24;7.35;;;5.30;;
151;SDS011;68;48.792;9.164;2023-04-15T10:42:52;6.82;;;4.85;;
151;SDS011;68;48.792;9.164;2023-04-15T10:45:20;8.15;;;5.25;;
151;SDS011;68;48.792;9.164;2023-04-15T10:47:53;9.43;;;5.70;;
151;SDS011;68;48.792;9.164;2023-04-15T10:50:20;10.60;;;5.68;;
151;SDS011;68;48.792;9.164;2023-04-15T10:52:49;7.07;;;4.82;;
151;SDS011;68;48.792;9.164;2023-04-15T10:55:18;7.40;;;5.35;;
151;SDS011;68;48.792;9.164;2023-04-15T10:57:46;7.50;;;4.57;;
151;SDS011;68;48.792;9.164;2023-04-15T11:00:18;8.15;;;4.70;;
151;SDS011;68;48.792;9.164;2023-04-15T11:02:47;11.45;;;5.30;;
151;SDS011;68;48.792;9.164;2023-04-15T11:05:19;8.55;;;5.00;;
151;SDS011;68;48.792;9.164;2023-04-15T11:07:48;6.90;;;4.65;;
151;SDS011;68;48.792;9.164;2023-04-15T11:13:19;8.98;;;5.05;;
151;SDS011;68;48.792;9.164;2023-04-15T11:15:49;8.15;;;4.45;;
151;SDS011;68;48.792;9.164;2023-04-15T11:18:17;8.98;;;4.72;;
151;SDS011;68;48.792;9.164;2023-04-15T11:20:46;8.68;;;4.72;;
151;SDS011;68;48.792;9.164;2023-04-15T11:23:16;6.90;;;4.60;;
151;SDS011;68;48.792;9.164;2023-04-15T11:25:44;12.10;;;5.38;;
151;SDS011;68;48.792;9.164;2023-04-15T11:28:12;9.40;;;4.70;;
151;SDS011;68;48.792;9.164;2023-04-15T11:30:39;14.50;;;4.40;;
151;SDS011;68;48.792;9.164;2023-04-15T11:33:08;8.53;;;5.20;;
151;SDS011;68;48.792;9.164;2023-04-15T11:35:36;5.83;;;3.97;;
151;SDS011;68;48.792;9.164;2023-04-15T11:38:07;8.93;;;4.50;;
151;SDS011;68;48.792;9.164;2023-04-15T11:40:36;10.40;;;5.00;;
151;SDS011;68;48.792;9.164;2023-04-15T11:43:03;10.68;;;5.93;;
151;SDS011;68;48.792;9.164;2023-04-15T11:45:31;8.38;;;4.43;;
151;SDS011;68;48.792;9.164;2023-04-15T11:48:05;7.35;;;5.32;;
151;SDS011;68;48.792;9.164;2023-04-15T11:50:33;12.50;;;4.80;;
151;SDS011;68;48.792;9.164;2023-04-15T11:53:01;8.88;;;5.00;;
151;SDS011;68;48.792;9.164;2023-04-15T11:55:32;9.13;;;5.50;;
151;SDS011;68;48.792;9.164;2023-04-15T11:58:16;9.93;;;5.75;;
151;SDS011;68;48.792;9.164;2023-04-15T12:00:47;14.05;;;5.32;;
151;SDS011;68;48.792;9.164;2023-04-15T12:03:17;8.75;;;5.30;;
151;SDS011;68;48.792;9.164;2023-04-15T12:08:56;6.20;;;4.82;;
151;SDS011;68;48.792;9.164;2023-04-15T12:11:31;16.60;;;10.63;;
151;SDS011;68;48.792;9.164;2023-04-15T12:14:02;9.82;;;6.18;;
151;SDS011;68;48.792;9.164;2023-04-15T12:16:32;10.07;;;5.20;;
151;SDS011;68;48.792;9.164;2023-04-15T12:18:59;9.48;;;5.38;;
151;SDS011;68;48.792;9.164;2023-04-15T12:21:32;13.05;;;5.70;;
151;SDS011;68;48.792;9.164;2023-04-15T12:24:00;14.98;;;6.03;;
151;SDS011;68;48.792;9.164;2023-04-15T12:26:32;12.88;;;5.60;;
151;SDS011;68;48.792;9.164;2023-04-15T12:29:00;7.18;;;5.15;;
151;SDS011;68;48.792;9.164;2023-04-15T12:31:27;7.05;;;4.80;;
151;SDS011;68;48.792;9.164;2023-04-15T12:33:55;6.00;;;4.63;;
151;SDS011;68;48.792;9.164;2023-04-15T12:36:22;9.25;;;6.10;;
151;SDS011;68;48.792;9.164;2023-04-15T12:38:49;9.60;;;6.25;;
151;SDS011;68;48.792;9.164;2023-04-15T12:41:22;9.32;;;6.85;;
151;SDS011;68;48.792;9.164;2023-04-15T12:43:50;7.95;;;6.45;;
151;SDS011;68;48.792;9.164;2023-04-15T12:46:17;12.75;;;6.85;;
151;SDS011;68;48.792;9.164;2023-04-15T12:48:44;7.72;;;6.47;;
151;SDS011;68;48.792;9.164;2023-04-15T12:51:11;9.15;;;6.93;;
151;SDS011;68;48.792;9.164;2023-04-15T12:53:38;8.35;;;6.40;;
151;SDS011;68;48.792;9.164;2023-04-15T12:56:05;7.00;;;5.40;;
151;SDS011;68;48.792;9.164;2023-04-15T12:58:32;8.20;;;5.40;;
151;SDS011;68;48.792;9.164;2023-04-15T13:01:00;8.50;;;5.90;;
151;SDS011;68;48.792;9.164;2023-04-15T13:03:27;6.70;;;5.32;;
151;SDS011;68;48.792;9.164;2023-04-15T13:05:54;7.80;;;4.95;;
151;SDS011;68;48.792;9.164;2023-04-15T13:08:21;5.93;;;4.88;;
151;SDS011;68;48.792;9.164;2023-04-15T13:10:49;6.97;;;4.88;;
151;SDS011;68;48.792;9.164;2023-04-15T13:13:15;6.78;;;5.05;;
151;SDS011;68;48.792;9.164;2023-04-15T13:15:42;5.90;;;4.45;;
151;SDS011;68;48.792;9.164;2023-04-15T13:18:11;6.70;;;4.82;;
151;SDS011;68;48.792;9.164;2023-04-15T13:20:38;5.70;;;4.55;;
151;SDS011;68;48.792;9.164;2023-04-15T13:23:04;6.03;;;4.88;;
151;SDS011;68;48.792;9.164;2023-04-15T13:25:31;7.53;;;4.85;;
151;SDS011;68;48.792;9.164;2023-04-15T13:27:58;9.68;;;4.55;;
151;SDS011;68;48.792;9.164;2023-04-15T13:30:25;5.65;;;4.15;;
151;SDS011;68;48.792;9.164;2023-04-15T13:32:52;5.68;;;4.47;;
151;SDS011;68;48.792;9.164;2023-04-15T13:35:20;6.45;;;4.60;;
151;SDS011;68;48.792;9.164;2023-04-15T13:37:47;6.57;;;3.88;;
151;SDS011;68;48.792;9.164;2023-04-15T13:40:14;4.28;;;3.30;;
151;SDS011;68;48.792;9.164;2023-04-15T13:42:41;3.78;;;3.22;;
151;SDS011;68;48.792;9.164;2023-04-15T13:45:08;6.32;;;3.35;;
151;SDS011;68;48.792;9.164;2023-04-15T13:47:35;4.35;;;3.05;;
151;SDS011;68;48.792;9.164;2023-04-15T13:50:02;4.70;;;3.00;;
151;SDS011;68;48.792;9.164;2023-04-15T13:52:31;3.70;;;3.15;;
151;SDS011;68;48.792;9.164;2023-04-15T13:54:57;4.13;;;2.85;;
151;SDS011;68;48.792;9.164;2023-04-15T13:57:24;5.55;;;3.70;;
151;SDS011;68;48.792;9.164;2023-04-15T13:59:51;5.75;;;3.70;;
151;SDS011;68;48.792;9.164;2023-04-15T14:02:19;4.93;;;3.40;;
151;SDS011;68;48.792;9.164;2023-04-15T14:04:47;6.88;;;3.40;;
151;SDS011;68;48.792;9.164;2023-04-15T14:07:13;3.55;;;3.05;;
151;SDS011;68;48.792;9.164;2023-04-15T14:09:42;5.82;;;3.05;;
151;SDS011;68;48.792;9.164;2023-04-15T14:12:09;5.07;;;3.00;;
151;SDS011;68;48.792;9.164;2023-04-15T14:14:36;4.15;;;2.97;;
151;SDS011;68;48.792;9.164;2023-04-15T14:17:02;3.63;;;2.80;;
151;SDS011;68;48.792;9.164;2023-04-15T14:19:29;5.07;;;2.60;;
151;SDS011;68;48.792;9.164;2023-04-15T14:21:57;3.80;;;2.80;;
151;SDS011;68;48.792;9.164;2023-04-15T14:24:24;3.25;;;2.90;;
151;SDS011;68;48.792;9.164;2023-04-15T14:26:52;4.97;;;3.10;;
151;SDS011;68;48.792;9.164;2023-04-15T14:29:20;4.88;;;3.10;;
151;SDS011;68;48.792;9.164;2023-04-15T14:31:47;4.38;;;3.50;;
151;SDS011;68;48.792;9.164;2023-04-15T14:34:15;8.18;;;3.75;;
151;SDS011;68;48.792;9.164;2023-04-15T14:36:42;4.10;;;3.00;;
151;SDS011;68;48.792;9.164;2023-04-15T14:39:09;5.88;;;3.53;;
151;SDS011;68;48.792;9.164;2023-04-15T14:41:36;4.05;;;2.85;;
151;SDS011;68;48.792;9.164;2023-04-15T14:44:04;3.95;;;2.95;;
151;SDS011;68;48.792;9.164;2023-04-15T14:46:33;4.25;;;3.17;;
151;SDS011;68;48.792;9.164;2023-04-15T14:49:00;5.38;;;3.20;;
151;SDS011;68;48.792;9.164;2023-04-15T14:51:27;3.22;;;3.08;;
151;SDS011;68;48.792;9.164;2023-04-15T14:53:54;3.88;;;2.90;;
151;SDS011;68;48.792;9.164;2023-04-15T14:56:20;6.78;;;3.10;;
151;SDS011;68;48.792;9.164;2023-04-15T14:58:47;6.85;;;3.30;;
151;SDS011;68;48.792;9.164;2023-04-15T15:01:18;3.95;;;3.45;;
151;SDS011;68;48.792;9.164;2023-04-15T15:03:45;3.35;;;2.80;;
151;SDS011;68;48.792;9.164;2023-04-15T15:06:12;5.05;;;3.85;;
151;SDS011;68;48.792;9.164;2023-04-15T15:08:39;5.78;;;3.50;;
151;SDS011;68;48.792;9.164;2023-04-15T15:11:06;3.60;;;3.45;;
151;SDS011;68;48.792;9.164;2023-04-15T15:13:33;6.55;;;3.40;;
151;SDS011;68;48.792;9.164;2023-04-15T15:16:00;4.07;;;3.13;;
151;SDS011;68;48.792;9.164;2023-04-15T15:18:28;6.00;;;3.35;;
151;SDS011;68;48.792;9.164;2023-04-15T15:20:55;3.90;;;3.45;;
151;SDS011;68;48.792;9.164;2023-04-15T15:23:22;8.63;;;4.05;;
151;SDS011;68;48.792;9.164;2023-04-15T15:25:49;5.40;;;3.95;;
151;SDS011;68;48.792;9.164;2023-04-15T15:28:16;10.88;;;4.10;;
151;SDS011;68;48.792;9.164;2023-04-15T15:30:42;8.02;;;3.70;;
151;SDS011;68;48.792;9.164;2023-04-15T15:33:09;6.32;;;3.75;;
151;SDS011;68;48.792;9.164;2023-04-15T15:35:37;6.80;;;3.92;;
151;SDS011;68;48.792;9.164;2023-04-15T15:38:05;3.67;;;3.30;;
151;SDS011;68;48.792;9.164;2023-04-15T15:40:31;8.75;;;3.88;;
151;SDS011;68;48.792;9.164;2023-04-15T15:42:58;5.78;;;3.70;;
151;SDS011;68;48.792;9.164;2023-04-15T15:45:25;6.80;;;3.67;;
151;SDS011;68;48.792;9.164;2023-04-15T15:47:52;3.78;;;3.38;;
151;SDS011;68;48.792;9.164;2023-04-15T15:50:20;6.65;;;4.07;;
151;SDS011;68;48.792;9.164;2023-04-15T15:52:49;3.85;;;3.40;;
151;SDS011;68;48.792;9.164;2023-04-15T15:55:16;8.63;;;4.00;;
151;SDS011;68;48.792;9.164;2023-04-15T15:57:43;6.07;;;3.85;;
151;SDS011;68;48.792;9.164;2023-04-15T16:00:10;5.63;;;3.90;;